Time;durP1;ratioP1;P1;durP2;ratioP2;P2;SDS_P1;SDS_P2;PMS_P1;PMS_P2;Temp;Humidity;BMP_temperature;BMP_pressure;BME280_temperature;BME280_humidity;BME280_pressure;Samples;Min_cycle;Max_cycle;Signal;HPM_P1;HPM_P2
2022/03/18 00:00:57;;;;;;;1.83;1.10;;;;;;;;;;5071028;28;20051;-72
2022/03/18 00:03:23;;;;;;;3.08;1.58;;;;;;;;;;5071247;28;20032;-72
2022/03/18 00:05:49;;;;;;;1.70;1.10;;;;;;;;;;5071695;28;20508;-73
2022/03/18 00:08:16;;;;;;;3.10;1.10;;;;;;;;;;5070989;28;20039;-72
2022/03/18 00:10:42;;;;;;;3.20;1.23;;;;;;;;;;5071063;28;20024;-72
2022/03/18 00:13:09;;;;;;;1.30;1.20;;;;;;;;;;5070856;28;20029;-72
2022/03/18 00:15:36;;;;;;;2.95;1.35;;;;;;;;;;5070883;28;20025;-72
2022/03/18 00:18:02;;;;;;;4.90;1.63;;;;;;;;;;5071595;28;20025;-72
2022/03/18 00:20:29;;;;;;;2.75;1.77;;;;;;;;;;5072847;28;20031;-72
2022/03/18 00:22:55;;;;;;;6.20;2.30;;;;;;;;;;5075189;28;20032;-72
2022/03/18 00:25:21;;;;;;;3.55;1.13;;;;;;;;;;5075049;28;20023;-72
2022/03/18 00:27:48;;;;;;;2.55;1.00;;;;;;;;;;5074897;28;20030;-72
2022/03/18 00:30:16;;;;;;;1.92;1.20;;;;;;;;;;5075283;28;20036;-72
2022/03/18 00:32:43;;;;;;;4.05;1.00;;;;;;;;;;5075329;28;20056;-72
2022/03/18 00:35:10;;;;;;;1.90;1.10;;;;;;;;;;5074730;28;20032;-72
2022/03/18 00:37:37;;;;;;;2.08;1.00;;;;;;;;;;5074581;28;20509;-72
2022/03/18 00:40:05;;;;;;;2.13;1.15;;;;;;;;;;5075124;28;20035;-72
2022/03/18 00:42:31;;;;;;;0.82;0.73;;;;;;;;;;5074743;28;20040;-72
2022/03/18 00:44:59;;;;;;;2.83;0.95;;;;;;;;;;5075269;28;20439;-72
2022/03/18 00:52:55;;;;;;;1.85;0.90;;;;;;;;;;5074316;28;20418;-72
2022/03/18 00:55:22;;;;;;;1.67;0.90;;;;;;;;;;5074084;28;20033;-72
2022/03/18 00:57:48;;;;;;;3.20;1.27;;;;;;;;;;5074662;28;20012;-72
2022/03/18 01:00:15;;;;;;;3.95;1.70;;;;;;;;;;5060242;28;20032;-72
2022/03/18 01:02:41;;;;;;;2.95;1.80;;;;;;;;;;5074573;28;20513;-72
2022/03/18 01:05:08;;;;;;;2.90;1.35;;;;;;;;;;5074381;28;20046;-72
2022/03/18 01:07:34;;;;;;;1.83;1.30;;;;;;;;;;5074397;28;20031;-72
2022/03/18 01:10:01;;;;;;;2.92;1.23;;;;;;;;;;5074031;28;20397;-72
2022/03/18 01:12:27;;;;;;;1.98;1.10;;;;;;;;;;5074300;28;20029;-72
2022/03/18 01:14:54;;;;;;;2.63;0.95;;;;;;;;;;5074674;28;20036;-72
2022/03/18 01:17:20;;;;;;;3.30;1.08;;;;;;;;;;5060832;28;20024;-72
2022/03/18 01:19:47;;;;;;;2.97;1.20;;;;;;;;;;5074233;28;20036;-72
2022/03/18 01:22:13;;;;;;;3.25;1.20;;;;;;;;;;5057037;28;20036;-72
2022/03/18 01:24:39;;;;;;;2.78;1.00;;;;;;;;;;5057899;28;20036;-72
2022/03/18 01:27:06;;;;;;;2.00;1.08;;;;;;;;;;5074646;28;20039;-72
2022/03/18 01:29:33;;;;;;;3.75;0.95;;;;;;;;;;5074060;28;20038;-72
2022/03/18 01:32:00;;;;;;;2.22;1.13;;;;;;;;;;5073643;28;20528;-72
2022/03/18 01:34:26;;;;;;;2.70;1.30;;;;;;;;;;5073747;28;20028;-72
2022/03/18 01:36:52;;;;;;;3.03;1.25;;;;;;;;;;5073710;28;20493;-73
2022/03/18 01:39:19;;;;;;;3.60;1.55;;;;;;;;;;5073392;28;20020;-72
2022/03/18 01:41:45;;;;;;;2.58;1.30;;;;;;;;;;5074314;28;20009;-72
2022/03/18 01:44:12;;;;;;;3.28;1.30;;;;;;;;;;5073864;28;20034;-72
2022/03/18 01:46:39;;;;;;;3.65;1.60;;;;;;;;;;5073656;28;20023;-72
2022/03/18 01:49:08;;;;;;;4.72;1.52;;;;;;;;;;5073780;28;20035;-71
2022/03/18 01:51:35;;;;;;;4.45;1.60;;;;;;;;;;5073601;28;20035;-71
2022/03/18 01:56:46;;;;;;;6.50;1.30;;;;;;;;;;5073255;28;20028;-71
2022/03/18 01:59:14;;;;;;;2.72;1.73;;;;;;;;;;5073319;28;20021;-72
2022/03/18 02:01:40;;;;;;;5.00;1.55;;;;;;;;;;5073300;28;20527;-72
2022/03/18 02:04:07;;;;;;;4.40;1.45;;;;;;;;;;5073264;28;20013;-72
2022/03/18 02:06:33;;;;;;;4.22;1.40;;;;;;;;;;5073154;28;20498;-72
2022/03/18 02:09:00;;;;;;;1.83;1.23;;;;;;;;;;5073962;28;20040;-72
2022/03/18 02:11:26;;;;;;;3.05;1.33;;;;;;;;;;5073052;28;20508;-72
2022/03/18 02:13:57;;;;;;;3.22;1.13;;;;;;;;;;5073394;28;20036;-72
2022/03/18 02:16:23;;;;;;;3.45;1.30;;;;;;;;;;5073085;28;20046;-72
2022/03/18 02:18:49;;;;;;;3.38;1.50;;;;;;;;;;5055024;28;20036;-71
2022/03/18 02:21:16;;;;;;;1.67;1.13;;;;;;;;;;5058765;28;20028;-72
2022/03/18 02:23:43;;;;;;;2.47;1.50;;;;;;;;;;5073208;28;20028;-72
2022/03/18 02:26:13;;;;;;;5.22;1.40;;;;;;;;;;5072715;28;20029;-71
2022/03/18 02:28:40;;;;;;;4.80;1.70;;;;;;;;;;5072871;28;20023;-72
2022/03/18 02:31:06;;;;;;;3.17;1.23;;;;;;;;;;5073026;28;20020;-73
2022/03/18 02:33:32;;;;;;;1.73;1.23;;;;;;;;;;5055667;28;20044;-71
2022/03/18 02:35:59;;;;;;;3.08;1.52;;;;;;;;;;5073197;28;20077;-72
2022/03/18 02:38:25;;;;;;;2.28;1.35;;;;;;;;;;5072116;28;20445;-72
2022/03/18 02:40:51;;;;;;;5.22;1.40;;;;;;;;;;5072581;28;20050;-72
2022/03/18 02:43:18;;;;;;;4.10;1.15;;;;;;;;;;5072082;28;20023;-71
2022/03/18 02:45:44;;;;;;;3.45;1.70;;;;;;;;;;5055148;28;20047;-72
2022/03/18 02:48:10;;;;;;;3.10;1.60;;;;;;;;;;5073169;28;20508;-72
2022/03/18 02:50:37;;;;;;;1.85;1.27;;;;;;;;;;5072173;28;20393;-72
2022/03/18 02:53:03;;;;;;;4.78;1.95;;;;;;;;;;5072212;28;20024;-72
2022/03/18 02:55:29;;;;;;;3.20;1.63;;;;;;;;;;5072002;28;20031;-72
2022/03/18 02:57:57;;;;;;;5.30;1.98;;;;;;;;;;5072360;28;20031;-72
2022/03/18 03:00:25;;;;;;;3.45;1.50;;;;;;;;;;5072276;28;20032;-72
2022/03/18 03:02:57;;;;;;;3.38;1.90;;;;;;;;;;5071039;28;20020;-72
2022/03/18 03:08:09;;;;;;;4.07;1.83;;;;;;;;;;5071993;28;20024;-72
2022/03/18 03:10:38;;;;;;;3.05;1.90;;;;;;;;;;5072219;28;20028;-72
2022/03/18 03:13:10;;;;;;;3.75;2.10;;;;;;;;;;5071936;28;20077;-72
2022/03/18 03:15:38;;;;;;;2.65;1.77;;;;;;;;;;5071891;28;20040;-72
2022/03/18 03:18:04;;;;;;;3.65;2.00;;;;;;;;;;5072502;28;20021;-72
2022/03/18 03:20:31;;;;;;;5.07;2.20;;;;;;;;;;5071335;28;20029;-72
2022/03/18 03:22:57;;;;;;;4.28;2.08;;;;;;;;;;5071639;28;20020;-72
2022/03/18 03:25:24;;;;;;;4.65;2.47;;;;;;;;;;5071456;28;20438;-72
2022/03/18 03:27:54;;;;;;;3.72;2.38;;;;;;;;;;5071762;28;20491;-72
2022/03/18 03:30:20;;;;;;;2.75;1.67;;;;;;;;;;5072002;28;20098;-72
2022/03/18 03:32:47;;;;;;;5.43;2.13;;;;;;;;;;5072014;28;20042;-72
2022/03/18 03:35:15;;;;;;;2.80;1.88;;;;;;;;;;5071136;28;20029;-72
2022/03/18 03:37:42;;;;;;;3.28;2.00;;;;;;;;;;5071326;28;20032;-72
2022/03/18 03:40:08;;;;;;;3.95;2.40;;;;;;;;;;5071315;28;20020;-72
2022/03/18 03:42:35;;;;;;;4.38;2.20;;;;;;;;;;5071348;28;20016;-72
2022/03/18 03:45:01;;;;;;;3.30;2.40;;;;;;;;;;5072083;28;20024;-72
2022/03/18 03:47:28;;;;;;;4.43;2.70;;;;;;;;;;5071284;28;20024;-72
2022/03/18 03:49:54;;;;;;;6.22;2.47;;;;;;;;;;5071061;28;20079;-72
2022/03/18 03:52:20;;;;;;;8.90;2.30;;;;;;;;;;5071335;28;20025;-72
2022/03/18 03:54:47;;;;;;;4.45;2.85;;;;;;;;;;5070159;28;20040;-72
2022/03/18 03:57:13;;;;;;;4.20;2.55;;;;;;;;;;5071524;28;20021;-72
2022/03/18 03:59:39;;;;;;;4.05;2.35;;;;;;;;;;5071238;28;20478;-72
2022/03/18 04:02:06;;;;;;;5.00;2.50;;;;;;;;;;5071124;28;20025;-72
2022/03/18 04:04:32;;;;;;;4.43;2.20;;;;;;;;;;5070885;28;20028;-72
2022/03/18 04:06:59;;;;;;;5.72;2.45;;;;;;;;;;5071183;28;20019;-72
2022/03/18 04:09:25;;;;;;;4.78;2.50;;;;;;;;;;5071257;28;20020;-72
2022/03/18 04:11:52;;;;;;;4.07;2.58;;;;;;;;;;5069824;28;20404;-72
2022/03/18 04:14:18;;;;;;;5.50;2.55;;;;;;;;;;5070819;28;20065;-72
2022/03/18 04:16:44;;;;;;;5.75;2.60;;;;;;;;;;5070918;28;20019;-72
2022/03/18 04:19:11;;;;;;;5.40;2.63;;;;;;;;;;5070968;28;20427;-72
2022/03/18 04:21:38;;;;;;;3.47;2.50;;;;;;;;;;5071001;28;20028;-72
2022/03/18 04:24:04;;;;;;;4.47;2.85;;;;;;;;;;5071598;28;20035;-72
2022/03/18 04:26:31;;;;;;;6.03;2.95;;;;;;;;;;5070976;28;20025;-72
2022/03/18 04:28:57;;;;;;;5.43;2.80;;;;;;;;;;5070985;28;20032;-72
2022/03/18 04:31:23;;;;;;;4.95;2.78;;;;;;;;;;5070941;28;20028;-72
2022/03/18 04:33:50;;;;;;;4.80;2.60;;;;;;;;;;5070809;28;20033;-72
2022/03/18 04:36:16;;;;;;;6.03;3.05;;;;;;;;;;5071167;28;20025;-72
2022/03/18 04:38:43;;;;;;;4.72;2.58;;;;;;;;;;5069910;28;20056;-72
2022/03/18 04:41:09;;;;;;;4.60;2.50;;;;;;;;;;5070806;28;20032;-72
2022/03/18 04:43:35;;;;;;;5.95;2.85;;;;;;;;;;5071073;28;20025;-72
2022/03/18 04:46:02;;;;;;;6.03;2.85;;;;;;;;;;5070791;28;20405;-72
2022/03/18 04:48:28;;;;;;;6.35;2.92;;;;;;;;;;5070681;28;20028;-72
2022/03/18 04:50:55;;;;;;;3.45;2.70;;;;;;;;;;5071356;28;20029;-72
2022/03/18 04:53:21;;;;;;;5.60;2.72;;;;;;;;;;5056811;28;20370;-72
2022/03/18 04:55:47;;;;;;;3.63;2.50;;;;;;;;;;5070545;28;20035;-72
2022/03/18 04:58:14;;;;;;;5.38;2.90;;;;;;;;;;5070498;28;20029;-72
2022/03/18 05:00:40;;;;;;;5.72;3.08;;;;;;;;;;5070887;28;20511;-72
2022/03/18 05:03:10;;;;;;;7.47;3.00;;;;;;;;;;5071035;28;20480;-72
2022/03/18 05:05:37;;;;;;;8.38;3.55;;;;;;;;;;5071120;28;20436;-72
2022/03/18 05:08:04;;;;;;;6.20;2.90;;;;;;;;;;5074300;28;20408;-72
2022/03/18 05:10:30;;;;;;;5.32;3.03;;;;;;;;;;5074195;28;20521;-72
2022/03/18 05:12:56;;;;;;;7.15;3.08;;;;;;;;;;5056347;28;20021;-72
2022/03/18 05:15:23;;;;;;;5.45;3.08;;;;;;;;;;5074050;28;20039;-72
2022/03/18 05:17:51;;;;;;;6.80;2.97;;;;;;;;;;5074437;28;20020;-72
2022/03/18 05:20:18;;;;;;;5.88;3.20;;;;;;;;;;5074112;28;20028;-72
2022/03/18 05:22:45;;;;;;;5.00;2.85;;;;;;;;;;5060490;28;20037;-72
2022/03/18 05:25:12;;;;;;;8.73;3.63;;;;;;;;;;5074062;28;20473;-72
2022/03/18 05:27:40;;;;;;;5.18;2.85;;;;;;;;;;5056207;28;20029;-72
2022/03/18 05:30:08;;;;;;;7.53;3.38;;;;;;;;;;5074615;28;20028;-72
2022/03/18 05:32:34;;;;;;;8.10;2.90;;;;;;;;;;5073540;28;20485;-72
2022/03/18 05:35:01;;;;;;;4.63;2.88;;;;;;;;;;5060158;28;20425;-72
2022/03/18 05:37:27;;;;;;;5.78;3.15;;;;;;;;;;5074065;28;20044;-72
2022/03/18 05:39:53;;;;;;;9.32;3.13;;;;;;;;;;5073698;28;20031;-72
2022/03/18 05:42:20;;;;;;;8.55;3.45;;;;;;;;;;5073829;28;20023;-72
2022/03/18 05:44:46;;;;;;;9.13;3.53;;;;;;;;;;5074555;28;20032;-72
2022/03/18 05:47:12;;;;;;;13.35;4.00;;;;;;;;;;5073259;28;20489;-72
2022/03/18 05:49:39;;;;;;;7.40;3.65;;;;;;;;;;5073302;28;20387;-72
2022/03/18 05:52:05;;;;;;;6.43;3.22;;;;;;;;;;5073437;28;20385;-72
2022/03/18 05:54:31;;;;;;;6.53;3.47;;;;;;;;;;5073453;28;20051;-72
2022/03/18 05:56:58;;;;;;;5.97;2.90;;;;;;;;;;5074009;28;20029;-72
2022/03/18 05:59:25;;;;;;;8.98;3.50;;;;;;;;;;5073118;28;20438;-72
2022/03/18 06:01:52;;;;;;;9.30;3.80;;;;;;;;;;5073377;28;20031;-72
2022/03/18 06:04:18;;;;;;;9.43;4.05;;;;;;;;;;5073490;28;20021;-72
2022/03/18 06:06:47;;;;;;;7.03;3.78;;;;;;;;;;5055815;28;20032;-72
2022/03/18 06:11:58;;;;;;;10.93;4.03;;;;;;;;;;5072673;28;20471;-72
2022/03/18 06:14:26;;;;;;;7.50;3.85;;;;;;;;;;5072906;28;20033;-71
2022/03/18 06:16:53;;;;;;;7.10;4.20;;;;;;;;;;5059302;28;20039;-72
2022/03/18 06:19:21;;;;;;;12.23;4.47;;;;;;;;;;5072223;28;20028;-72
2022/03/18 06:21:47;;;;;;;9.63;4.57;;;;;;;;;;5073044;28;20008;-72
2022/03/18 06:24:14;;;;;;;8.52;4.30;;;;;;;;;;5073489;28;20047;-72
2022/03/18 06:26:40;;;;;;;12.13;5.13;;;;;;;;;;5072672;28;20512;-72
2022/03/18 06:29:07;;;;;;;9.13;4.55;;;;;;;;;;5072399;28;20046;-72
2022/03/18 06:31:34;;;;;;;12.02;5.43;;;;;;;;;;5058839;28;20031;-72
2022/03/18 06:34:00;;;;;;;7.55;4.30;;;;;;;;;;5054776;28;20042;-72
2022/03/18 06:36:27;;;;;;;13.00;5.00;;;;;;;;;;5072625;28;20028;-72
2022/03/18 06:38:53;;;;;;;8.77;4.80;;;;;;;;;;5073124;28;20044;-72
2022/03/18 06:41:20;;;;;;;10.85;5.13;;;;;;;;;;5072663;28;20081;-72
2022/03/18 06:43:49;;;;;;;11.20;5.35;;;;;;;;;;5072111;28;20028;-72
2022/03/18 06:46:16;;;;;;;11.55;6.80;;;;;;;;;;5072397;28;20029;-72
2022/03/18 06:48:43;;;;;;;16.75;7.93;;;;;;;;;;5072537;28;20481;-72
2022/03/18 06:51:10;;;;;;;15.13;7.90;;;;;;;;;;5072970;28;20025;-72
2022/03/18 06:53:36;;;;;;;15.00;6.97;;;;;;;;;;5072022;28;20451;-72
2022/03/18 06:56:06;;;;;;;10.13;6.05;;;;;;;;;;5072102;28;20032;-72
2022/03/18 06:58:33;;;;;;;10.40;6.10;;;;;;;;;;5071726;28;20069;-72
2022/03/18 07:00:59;;;;;;;8.30;5.95;;;;;;;;;;5069638;28;20028;-72
2022/03/18 07:03:26;;;;;;;13.02;6.03;;;;;;;;;;5071155;28;20392;-72
2022/03/18 07:05:52;;;;;;;10.40;5.90;;;;;;;;;;5070859;28;20021;-72
2022/03/18 07:08:19;;;;;;;10.60;6.35;;;;;;;;;;5071740;28;20031;-72
2022/03/18 07:10:45;;;;;;;12.00;6.38;;;;;;;;;;5071342;28;20028;-70
2022/03/18 07:13:12;;;;;;;9.45;5.97;;;;;;;;;;5070825;28;20503;-73
2022/03/18 07:15:38;;;;;;;12.23;6.20;;;;;;;;;;5071705;28;20040;-73
2022/03/18 07:18:05;;;;;;;12.60;6.38;;;;;;;;;;5072086;28;20012;-72
2022/03/18 07:20:32;;;;;;;13.07;6.32;;;;;;;;;;5071724;28;20062;-72
2022/03/18 07:23:01;;;;;;;14.85;6.25;;;;;;;;;;5071235;28;20031;-71
2022/03/18 07:25:28;;;;;;;12.27;7.75;;;;;;;;;;5071196;28;20025;-72
2022/03/18 07:27:54;;;;;;;11.63;7.25;;;;;;;;;;5052489;28;20028;-72
2022/03/18 07:30:21;;;;;;;14.82;7.03;;;;;;;;;;5055727;28;20389;-72
2022/03/18 07:32:47;;;;;;;20.42;8.45;;;;;;;;;;5068861;28;20036;-72
2022/03/18 07:35:14;;;;;;;14.93;7.22;;;;;;;;;;5070438;28;20455;-72
2022/03/18 07:37:41;;;;;;;13.75;7.43;;;;;;;;;;5070039;28;20472;-72
2022/03/18 07:40:09;;;;;;;14.68;6.70;;;;;;;;;;5070499;28;20539;-72
2022/03/18 07:42:42;;;;;;;19.77;10.00;;;;;;;;;;5070551;28;20024;-72
2022/03/18 07:45:09;;;;;;;12.82;6.25;;;;;;;;;;5067581;28;20021;-73
2022/03/18 07:47:36;;;;;;;14.50;7.30;;;;;;;;;;5070063;28;20028;-72
2022/03/18 07:50:02;;;;;;;16.25;6.50;;;;;;;;;;5070740;28;20021;-72
2022/03/18 07:52:28;;;;;;;11.45;6.32;;;;;;;;;;5052996;28;20021;-72
2022/03/18 07:54:55;;;;;;;14.43;5.95;;;;;;;;;;5070074;28;20039;-72
2022/03/18 07:57:21;;;;;;;20.38;6.30;;;;;;;;;;5069417;28;20382;-73
2022/03/18 07:59:47;;;;;;;10.82;5.85;;;;;;;;;;5070384;28;20024;-72
2022/03/18 08:02:14;;;;;;;12.73;6.57;;;;;;;;;;5069412;28;20468;-72
2022/03/18 08:04:40;;;;;;;11.82;6.97;;;;;;;;;;5070603;28;20053;-72
2022/03/18 08:07:06;;;;;;;13.95;7.50;;;;;;;;;;5069472;28;20020;-72
2022/03/18 08:09:33;;;;;;;12.07;7.22;;;;;;;;;;5069757;28;20036;-72
2022/03/18 08:12:00;;;;;;;16.00;6.40;;;;;;;;;;5070344;28;20028;-72
2022/03/18 08:14:26;;;;;;;14.25;5.75;;;;;;;;;;5070586;28;20036;-72
2022/03/18 08:16:53;;;;;;;10.07;5.13;;;;;;;;;;5070474;28;20032;-73
2022/03/18 08:19:19;;;;;;;10.68;5.40;;;;;;;;;;5069926;28;20031;-73
2022/03/18 08:21:45;;;;;;;16.02;5.20;;;;;;;;;;5070569;28;20481;-72
2022/03/18 08:24:12;;;;;;;12.85;5.80;;;;;;;;;;5071066;28;20546;-72
2022/03/18 08:26:38;;;;;;;18.90;5.10;;;;;;;;;;5069032;28;20023;-73
2022/03/18 08:29:05;;;;;;;15.52;5.60;;;;;;;;;;5069945;28;20020;-73
2022/03/18 08:31:31;;;;;;;9.57;5.78;;;;;;;;;;5069750;28;20090;-73
2022/03/18 08:33:58;;;;;;;13.73;5.25;;;;;;;;;;5069318;28;20047;-72
2022/03/18 08:36:24;;;;;;;13.70;5.00;;;;;;;;;;5069690;28;20019;-73
2022/03/18 08:38:50;;;;;;;11.00;5.57;;;;;;;;;;5066750;28;20060;-73
2022/03/18 08:41:17;;;;;;;12.27;5.47;;;;;;;;;;5074448;28;20366;-73
2022/03/18 08:43:43;;;;;;;11.95;5.95;;;;;;;;;;5074258;28;20031;-73
2022/03/18 08:46:10;;;;;;;15.13;6.03;;;;;;;;;;5056467;28;20029;-73
2022/03/18 08:48:36;;;;;;;12.45;6.05;;;;;;;;;;5074153;28;20408;-73
2022/03/18 08:51:02;;;;;;;13.60;6.53;;;;;;;;;;5064344;28;20081;-73
2022/03/18 08:53:29;;;;;;;16.23;6.28;;;;;;;;;;5073310;28;20074;-72
2022/03/18 08:55:56;;;;;;;14.90;6.85;;;;;;;;;;5073609;28;20058;-73
2022/03/18 08:58:22;;;;;;;13.50;6.28;;;;;;;;;;5073927;28;20020;-73
2022/03/18 09:00:49;;;;;;;13.57;6.25;;;;;;;;;;5072368;28;20054;-73
2022/03/18 09:03:15;;;;;;;13.55;6.15;;;;;;;;;;5059863;28;20036;-73
2022/03/18 09:05:45;;;;;;;10.75;5.30;;;;;;;;;;5073423;28;20031;-73
2022/03/18 09:08:11;;;;;;;13.10;5.57;;;;;;;;;;5073509;28;20027;-72
2022/03/18 09:10:37;;;;;;;10.30;5.38;;;;;;;;;;5073077;28;20032;-73
2022/03/18 09:13:04;;;;;;;10.70;5.78;;;;;;;;;;5073072;28;20028;-72
2022/03/18 09:15:30;;;;;;;15.52;6.28;;;;;;;;;;5072597;28;20500;-73
2022/03/18 09:17:57;;;;;;;13.30;5.90;;;;;;;;;;5073636;28;20059;-73
2022/03/18 09:20:23;;;;;;;14.10;5.97;;;;;;;;;;5073338;28;20500;-73
2022/03/18 09:22:50;;;;;;;17.90;6.25;;;;;;;;;;5073103;28;20493;-72
2022/03/18 09:25:16;;;;;;;15.35;5.28;;;;;;;;;;5072764;28;20035;-73
2022/03/18 09:27:43;;;;;;;16.05;5.53;;;;;;;;;;5073161;28;20034;-73
2022/03/18 09:30:11;;;;;;;12.60;6.22;;;;;;;;;;5069244;28;20028;-73
2022/03/18 09:32:40;;;;;;;16.88;7.00;;;;;;;;;;5070029;28;20038;-73
2022/03/18 09:35:07;;;;;;;17.42;7.38;;;;;;;;;;5058580;28;20040;-73
2022/03/18 09:37:34;;;;;;;16.00;7.05;;;;;;;;;;5071235;28;20066;-73
2022/03/18 09:40:04;;;;;;;19.67;7.45;;;;;;;;;;5072340;28;20089;-73
2022/03/18 09:42:32;;;;;;;15.73;6.88;;;;;;;;;;5055771;28;20035;-73
2022/03/18 09:44:59;;;;;;;19.05;7.47;;;;;;;;;;5073093;28;20024;-73
2022/03/18 09:47:26;;;;;;;13.32;7.32;;;;;;;;;;5072365;28;20031;-73
2022/03/18 09:49:53;;;;;;;16.88;7.53;;;;;;;;;;5059971;28;20025;-73
2022/03/18 09:52:19;;;;;;;13.65;6.95;;;;;;;;;;5070766;28;20029;-73
2022/03/18 09:54:45;;;;;;;14.80;6.95;;;;;;;;;;5071778;28;20043;-73
2022/03/18 09:57:12;;;;;;;14.85;7.32;;;;;;;;;;5080048;28;20026;-72
2022/03/18 09:59:39;;;;;;;14.88;6.65;;;;;;;;;;5065644;28;20032;-73
2022/03/18 10:02:23;;;;;;;16.65;6.88;;;;;;;;;;5077254;28;20485;-73
2022/03/18 10:04:56;;;;;;;16.85;7.10;;;;;;;;;;5072459;28;20505;-73
2022/03/18 10:07:22;;;;;;;18.25;8.60;;;;;;;;;;5072561;28;20023;-73
2022/03/18 10:09:49;;;;;;;16.35;7.95;;;;;;;;;;5073110;28;20390;-72
2022/03/18 10:12:35;;;;;;;17.73;7.55;;;;;;;;;;5072896;28;20028;-72
2022/03/18 10:15:09;;;;;;;15.93;7.15;;;;;;;;;;5071874;28;20397;-73
2022/03/18 10:17:48;;;;;;;21.80;7.10;;;;;;;;;;5072752;28;20032;-73
2022/03/18 10:20:25;;;;;;;20.17;6.85;;;;;;;;;;5072766;28;20039;-73
2022/03/18 10:22:52;;;;;;;12.15;6.65;;;;;;;;;;5072239;28;20051;-73
2022/03/18 10:25:37;;;;;;;13.25;7.07;;;;;;;;;;5059040;28;20477;-73
2022/03/18 10:28:05;;;;;;;13.82;6.97;;;;;;;;;;5072579;28;20023;-73
2022/03/18 10:30:31;;;;;;;18.20;7.00;;;;;;;;;;5072176;28;20078;-73
2022/03/18 10:32:57;;;;;;;17.77;7.18;;;;;;;;;;5072911;28;20028;-73
2022/03/18 10:38:29;;;;;;;12.43;6.38;;;;;;;;;;5071794;28;20047;-72
2022/03/18 10:40:56;;;;;;;15.60;6.60;;;;;;;;;;5072247;28;20040;-73
2022/03/18 10:43:23;;;;;;;16.25;6.53;;;;;;;;;;5072034;28;20482;-73
2022/03/18 10:46:01;;;;;;;14.13;6.88;;;;;;;;;;5071873;28;20047;-73
2022/03/18 10:48:27;;;;;;;22.15;7.38;;;;;;;;;;5072350;28;20031;-73
2022/03/18 10:51:12;;;;;;;15.05;6.63;;;;;;;;;;5069916;28;20081;-73
2022/03/18 10:53:40;;;;;;;15.55;7.10;;;;;;;;;;5071766;28;20035;-74
2022/03/18 10:56:08;;;;;;;16.75;6.55;;;;;;;;;;5071741;28;20043;-73
2022/03/18 10:58:36;;;;;;;10.57;6.32;;;;;;;;;;5071792;28;20015;-73
2022/03/18 11:01:03;;;;;;;16.50;6.90;;;;;;;;;;5071764;28;20349;-73
2022/03/18 11:03:31;;;;;;;17.75;7.05;;;;;;;;;;5071097;28;20017;-74
2022/03/18 11:06:02;;;;;;;19.30;6.88;;;;;;;;;;5071426;28;20028;-73
2022/03/18 11:08:35;;;;;;;18.55;6.60;;;;;;;;;;5071733;28;20386;-73
2022/03/18 11:11:07;;;;;;;16.15;6.45;;;;;;;;;;5071672;28;20490;-78
2022/03/18 11:13:49;;;;;;;13.88;6.75;;;;;;;;;;5071535;28;20047;-74
2022/03/18 11:16:20;;;;;;;16.45;6.65;;;;;;;;;;5071399;28;20032;-82
2022/03/18 11:18:47;;;;;;;17.70;6.65;;;;;;;;;;5055469;28;20439;-75
2022/03/18 11:21:15;;;;;;;12.43;6.72;;;;;;;;;;5071789;28;20039;-76
2022/03/18 11:23:42;;;;;;;19.05;6.72;;;;;;;;;;5057436;28;20040;-76
2022/03/18 11:26:11;;;;;;;12.63;6.57;;;;;;;;;;5070306;28;20023;-76
2022/03/18 11:28:37;;;;;;;10.30;5.85;;;;;;;;;;5070919;28;20025;-75
2022/03/18 11:31:17;;;;;;;17.30;6.78;;;;;;;;;;5070977;28;20021;-76
2022/03/18 11:34:03;;;;;;;18.45;6.90;;;;;;;;;;5061425;28;20359;-76
2022/03/18 11:36:30;;;;;;;16.67;6.45;;;;;;;;;;5068816;28;20025;-76
2022/03/18 11:38:59;;;;;;;18.80;6.75;;;;;;;;;;5070866;28;20075;-76
2022/03/18 11:41:26;;;;;;;17.60;6.97;;;;;;;;;;5070805;28;20497;-76
2022/03/18 11:43:53;;;;;;;18.23;6.05;;;;;;;;;;5070318;28;20048;-76
2022/03/18 11:46:23;;;;;;;19.35;6.90;;;;;;;;;;5070302;28;20575;-75
2022/03/18 11:48:53;;;;;;;15.82;6.82;;;;;;;;;;5070269;28;20021;-76
2022/03/18 11:51:36;;;;;;;17.80;6.95;;;;;;;;;;5071306;28;20028;-76
2022/03/18 11:54:03;;;;;;;13.52;7.50;;;;;;;;;;5071432;28;20027;-76
2022/03/18 11:56:45;;;;;;;20.33;7.90;;;;;;;;;;5057827;28;20036;-76
2022/03/18 11:59:31;;;;;;;24.02;8.75;;;;;;;;;;5071112;28;20070;-76
2022/03/18 12:02:04;;;;;;;15.88;7.68;;;;;;;;;;5070988;28;20032;-76
2022/03/18 12:04:33;;;;;;;21.13;7.72;;;;;;;;;;5055738;28;20020;-76
2022/03/18 12:07:09;;;;;;;14.48;7.53;;;;;;;;;;5053261;28;20016;-75
2022/03/18 12:09:55;;;;;;;18.88;8.00;;;;;;;;;;5070706;28;20023;-76
2022/03/18 12:12:31;;;;;;;16.02;7.40;;;;;;;;;;5078447;28;20020;-76
2022/03/18 12:14:58;;;;;;;17.90;7.47;;;;;;;;;;5068890;28;20416;-76
2022/03/18 12:17:25;;;;;;;14.43;6.82;;;;;;;;;;5070348;28;20031;-76
2022/03/18 12:19:52;;;;;;;27.33;7.82;;;;;;;;;;5070848;28;20029;-76
2022/03/18 12:22:20;;;;;;;12.75;7.30;;;;;;;;;;5071080;28;20038;-76
2022/03/18 12:24:50;;;;;;;16.35;8.00;;;;;;;;;;5070713;28;20033;-76
2022/03/18 12:27:17;;;;;;;18.80;6.57;;;;;;;;;;5071087;28;20062;-76
2022/03/18 12:29:44;;;;;;;18.30;6.57;;;;;;;;;;5071069;28;20032;-76
2022/03/18 12:32:13;;;;;;;20.88;6.97;;;;;;;;;;5070276;28;20404;-76
2022/03/18 12:34:50;;;;;;;12.65;7.10;;;;;;;;;;5070492;28;20033;-76
2022/03/18 12:37:20;;;;;;;18.98;8.63;;;;;;;;;;5069704;28;20045;-76
2022/03/18 12:39:49;;;;;;;22.23;8.85;;;;;;;;;;5070705;28;20043;-76
2022/03/18 12:42:16;;;;;;;19.50;8.80;;;;;;;;;;5070713;28;20046;-76
2022/03/18 12:44:46;;;;;;;12.20;6.43;;;;;;;;;;5069116;28;20040;-77
2022/03/18 12:47:13;;;;;;;15.13;6.40;;;;;;;;;;5072761;28;20014;-76
2022/03/18 12:49:39;;;;;;;18.70;6.40;;;;;;;;;;5071766;28;20028;-76
2022/03/18 12:52:12;;;;;;;12.45;6.13;;;;;;;;;;5070294;28;20035;-76
2022/03/18 12:54:39;;;;;;;10.68;6.10;;;;;;;;;;5070609;28;20036;-76
2022/03/18 12:57:09;;;;;;;13.20;5.85;;;;;;;;;;5070713;28;20066;-76
2022/03/18 12:59:38;;;;;;;26.92;6.93;;;;;;;;;;5056531;28;20025;-76
2022/03/18 13:02:05;;;;;;;24.92;6.30;;;;;;;;;;5067974;28;20515;-76
2022/03/18 13:04:33;;;;;;;16.70;6.60;;;;;;;;;;5070068;28;20021;-75
2022/03/18 13:07:01;;;;;;;16.08;6.30;;;;;;;;;;5069883;28;20035;-75
2022/03/18 13:09:27;;;;;;;25.08;6.57;;;;;;;;;;5070269;28;20025;-76
2022/03/18 13:11:53;;;;;;;14.00;6.22;;;;;;;;;;5070638;28;20492;-76
2022/03/18 13:14:30;;;;;;;17.40;6.13;;;;;;;;;;5070070;28;20081;-75
2022/03/18 13:16:58;;;;;;;17.63;6.13;;;;;;;;;;5066355;28;20029;-76
2022/03/18 13:19:55;;;;;;;18.80;6.88;;;;;;;;;;5070016;28;20031;-76
2022/03/18 13:22:22;;;;;;;15.73;6.38;;;;;;;;;;5062994;28;20071;-77
2022/03/18 13:24:52;;;;;;;18.30;6.07;;;;;;;;;;5070100;28;20401;-76
2022/03/18 13:27:20;;;;;;;17.88;5.82;;;;;;;;;;5071779;28;20030;-76
2022/03/18 13:32:53;;;;;;;24.85;6.72;;;;;;;;;;5073250;28;20028;-76
2022/03/18 13:35:21;;;;;;;21.45;6.95;;;;;;;;;;5071609;28;20036;-76
2022/03/18 13:38:06;;;;;;;21.13;6.80;;;;;;;;;;5073479;28;20047;-76
2022/03/18 13:40:33;;;;;;;16.10;6.57;;;;;;;;;;5073427;28;20029;-77
2022/03/18 13:43:04;;;;;;;13.45;6.10;;;;;;;;;;5069053;28;20043;-76
2022/03/18 13:45:31;;;;;;;16.42;6.97;;;;;;;;;;5071470;28;20073;-77
2022/03/18 13:47:57;;;;;;;14.20;6.22;;;;;;;;;;5073072;28;20035;-77
2022/03/18 13:50:25;;;;;;;21.00;7.00;;;;;;;;;;5074444;28;20025;-77
2022/03/18 13:52:52;;;;;;;16.52;6.60;;;;;;;;;;5072468;28;20029;-77
2022/03/18 13:55:32;;;;;;;15.90;6.60;;;;;;;;;;5072380;28;20412;-76
2022/03/18 13:58:00;;;;;;;18.88;6.55;;;;;;;;;;5073190;28;20037;-77
2022/03/18 14:00:29;;;;;;;16.70;7.47;;;;;;;;;;5049719;28;20040;-77
2022/03/18 14:03:06;;;;;;;19.05;6.68;;;;;;;;;;5074326;28;20031;-77
2022/03/18 14:05:33;;;;;;;14.30;7.13;;;;;;;;;;5072263;28;20086;-77
2022/03/18 14:08:00;;;;;;;21.55;7.10;;;;;;;;;;5071833;28;20037;-77
2022/03/18 14:10:37;;;;;;;21.60;6.38;;;;;;;;;;5072482;28;20030;-77
2022/03/18 14:13:07;;;;;;;20.38;6.40;;;;;;;;;;5071352;28;20021;-77
2022/03/18 14:15:41;;;;;;;24.45;6.63;;;;;;;;;;5070432;28;20029;-77
2022/03/18 14:18:07;;;;;;;22.52;7.40;;;;;;;;;;5054130;28;20025;-77
2022/03/18 14:20:49;;;;;;;16.02;6.95;;;;;;;;;;5072187;28;20032;-77
2022/03/18 14:23:15;;;;;;;21.58;7.15;;;;;;;;;;5075542;28;20043;-77
2022/03/18 14:25:42;;;;;;;11.98;6.38;;;;;;;;;;5080256;28;20020;-77
2022/03/18 14:28:09;;;;;;;19.52;6.63;;;;;;;;;;5072358;28;20025;-77
2022/03/18 14:30:36;;;;;;;19.10;6.90;;;;;;;;;;5071912;28;22478;-77
2022/03/18 14:33:04;;;;;;;25.05;7.75;;;;;;;;;;5072607;28;20031;-77
2022/03/18 14:35:30;;;;;;;24.65;7.38;;;;;;;;;;5058170;28;20047;-77
2022/03/18 14:37:58;;;;;;;20.15;7.07;;;;;;;;;;5072476;28;20052;-77
2022/03/18 14:40:25;;;;;;;19.67;7.32;;;;;;;;;;5070892;28;20443;-77
2022/03/18 14:42:51;;;;;;;19.67;6.93;;;;;;;;;;5070690;28;20020;-77
2022/03/18 14:45:19;;;;;;;22.45;7.82;;;;;;;;;;5071098;28;20709;-77
2022/03/18 14:47:46;;;;;;;25.50;8.55;;;;;;;;;;5076250;28;20451;-78
2022/03/18 14:50:12;;;;;;;19.10;7.22;;;;;;;;;;5067818;28;20032;-78
2022/03/18 14:52:39;;;;;;;19.75;7.40;;;;;;;;;;5072596;28;20017;-77
2022/03/18 14:57:52;;;;;;;16.83;7.30;;;;;;;;;;5056513;28;20016;-77
2022/03/18 15:00:18;;;;;;;19.13;7.30;;;;;;;;;;5071686;28;20046;-76
2022/03/18 15:02:44;;;;;;;18.33;6.65;;;;;;;;;;5071627;28;20028;-77